sensor_id;sensor_type;location;lat;lon;timestamp;P1;P4;P2;P0;N10;N4;N25;N1;N05;TS
66961;SPS30;53897;51.126;5.868;2023-11-25T00:01:07;1.44;1.30;1.03;0.68;5.41;5.40;5.34;5.01;3.89;0.75
66961;SPS30;53897;51.126;5.868;2023-11-25T00:03:33;1.51;1.38;1.11;0.74;5.92;5.90;5.84;5.51;4.32;0.74
66961;SPS30;53897;51.126;5.868;2023-11-25T00:05:59;1.17;1.07;0.86;0.59;4.70;4.69;4.65;4.39;3.47;0.73
66961;SPS30;53897;51.126;5.868;2023-11-25T00:08:25;1.16;1.05;0.85;0.57;4.57;4.56;4.51;4.26;3.36;0.74
66961;SPS30;53897;51.126;5.868;2023-11-25T00:10:51;1.21;1.10;0.89;0.61;4.87;4.86;4.81;4.55;3.60;0.73
66961;SPS30;53897;51.126;5.868;2023-11-25T00:13:17;1.33;1.22;0.99;0.68;5.48;5.47;5.42;5.14;4.10;0.73
66961;SPS30;53897;51.126;5.868;2023-11-25T00:15:43;1.14;1.05;0.87;0.61;4.89;4.88;4.84;4.61;3.71;0.72
66961;SPS30;53897;51.126;5.868;2023-11-25T00:18:09;1.22;1.12;0.93;0.67;5.34;5.33;5.29;5.05;4.09;0.71
66961;SPS30;53897;51.126;5.868;2023-11-25T00:20:35;1.09;1.01;0.86;0.63;5.08;5.07;5.03;4.84;3.97;0.68
66961;SPS30;53897;51.126;5.868;2023-11-25T00:23:04;0.81;0.75;0.64;0.48;3.85;3.84;3.82;3.68;3.04;0.67
66961;SPS30;53897;51.126;5.868;2023-11-25T00:25:30;1.02;0.95;0.82;0.62;4.95;4.94;4.91;4.74;3.93;0.67
66961;SPS30;53897;51.126;5.868;2023-11-25T00:27:55;0.95;0.89;0.75;0.56;4.51;4.50;4.47;4.30;3.55;0.68
66961;SPS30;53897;51.126;5.868;2023-11-25T00:30:21;1.16;1.07;0.90;0.66;5.31;5.30;5.26;5.05;4.14;0.69
66961;SPS30;53897;51.126;5.868;2023-11-25T00:32:50;0.96;0.89;0.75;0.55;4.43;4.43;4.39;4.22;3.46;0.69
66961;SPS30;53897;51.126;5.868;2023-11-25T00:35:16;1.06;0.98;0.84;0.62;4.97;4.96;4.93;4.74;3.90;0.69
66961;SPS30;53897;51.126;5.868;2023-11-25T00:37:42;1.08;1.00;0.85;0.63;5.06;5.06;5.02;4.83;3.98;0.68
66961;SPS30;53897;51.126;5.868;2023-11-25T00:40:08;0.81;0.75;0.63;0.46;3.70;3.70;3.67;3.52;2.89;0.70
66961;SPS30;53897;51.126;5.868;2023-11-25T00:42:38;1.00;0.92;0.78;0.58;4.61;4.61;4.57;4.40;3.61;0.69
66961;SPS30;53897;51.126;5.868;2023-11-25T00:45:07;1.18;1.10;0.93;0.70;5.59;5.58;5.55;5.34;4.41;0.68
66961;SPS30;53897;51.126;5.868;2023-11-25T00:47:37;0.98;0.91;0.79;0.60;4.79;4.79;4.76;4.60;3.82;0.66
66961;SPS30;53897;51.126;5.868;2023-11-25T00:50:05;1.19;1.12;0.98;0.76;6.08;6.08;6.04;5.86;4.91;0.65
66961;SPS30;53897;51.126;5.868;2023-11-25T00:52:32;0.90;0.85;0.76;0.61;4.84;4.84;4.81;4.69;3.96;0.63
66961;SPS30;53897;51.126;5.868;2023-11-25T00:54:58;0.85;0.80;0.72;0.57;4.59;4.59;4.57;4.45;3.77;0.62
66961;SPS30;53897;51.126;5.868;2023-11-25T00:57:25;0.91;0.86;0.76;0.61;4.86;4.85;4.83;4.70;3.97;0.64
66961;SPS30;53897;51.126;5.868;2023-11-25T00:59:51;0.91;0.86;0.76;0.61;4.86;4.85;4.83;4.71;3.98;0.63
66961;SPS30;53897;51.126;5.868;2023-11-25T01:02:17;1.02;0.97;0.85;0.68;5.43;5.42;5.40;5.25;4.43;0.63
66961;SPS30;53897;51.126;5.868;2023-11-25T01:04:42;0.87;0.83;0.74;0.59;4.72;4.72;4.70;4.58;3.88;0.63
66961;SPS30;53897;51.126;5.868;2023-11-25T01:07:08;0.96;0.91;0.81;0.65;5.17;5.17;5.14;5.01;4.25;0.63
66961;SPS30;53897;51.126;5.868;2023-11-25T01:09:35;1.11;1.05;0.93;0.74;5.93;5.92;5.89;5.74;4.85;0.64
66961;SPS30;53897;51.126;5.868;2023-11-25T01:12:01;0.89;0.84;0.74;0.60;4.77;4.76;4.74;4.62;3.91;0.64
66961;SPS30;53897;51.126;5.868;2023-11-25T01:14:28;0.93;0.87;0.77;0.61;4.87;4.86;4.84;4.70;3.96;0.64
66961;SPS30;53897;51.126;5.868;2023-11-25T01:16:54;0.87;0.82;0.72;0.57;4.58;4.58;4.56;4.43;3.74;0.64
66961;SPS30;53897;51.126;5.868;2023-11-25T01:19:19;0.73;0.69;0.61;0.49;3.90;3.89;3.88;3.77;3.18;0.63
66961;SPS30;53897;51.126;5.868;2023-11-25T01:21:45;0.89;0.84;0.75;0.60;4.79;4.79;4.77;4.65;3.94;0.63
66961;SPS30;53897;51.126;5.868;2023-11-25T01:24:10;0.81;0.77;0.69;0.56;4.46;4.46;4.44;4.33;3.67;0.63
66961;SPS30;53897;51.126;5.868;2023-11-25T01:26:37;0.84;0.79;0.71;0.57;4.59;4.58;4.56;4.45;3.78;0.62
66961;SPS30;53897;51.126;5.868;2023-11-25T01:29:06;0.93;0.88;0.78;0.63;5.02;5.02;5.00;4.87;4.12;0.63
66961;SPS30;53897;51.126;5.868;2023-11-25T01:31:32;0.97;0.92;0.82;0.65;5.23;5.23;5.20;5.07;4.29;0.63
66961;SPS30;53897;51.126;5.868;2023-11-25T01:33:58;0.95;0.90;0.80;0.64;5.14;5.13;5.11;4.98;4.21;0.63
66961;SPS30;53897;51.126;5.868;2023-11-25T01:36:24;0.72;0.68;0.60;0.48;3.82;3.82;3.80;3.70;3.12;0.64
66961;SPS30;53897;51.126;5.868;2023-11-25T01:38:51;0.84;0.79;0.69;0.55;4.38;4.38;4.35;4.23;3.56;0.64
66961;SPS30;53897;51.126;5.868;2023-11-25T01:41:17;0.90;0.85;0.74;0.59;4.68;4.68;4.65;4.52;3.80;0.64
66961;SPS30;53897;51.126;5.868;2023-11-25T01:43:43;0.93;0.88;0.77;0.61;4.88;4.88;4.85;4.72;3.97;0.64
66961;SPS30;53897;51.126;5.868;2023-11-25T01:46:09;0.73;0.69;0.61;0.48;3.86;3.86;3.84;3.73;3.14;0.64
66961;SPS30;53897;51.126;5.868;2023-11-25T01:48:39;1.02;0.96;0.84;0.66;5.27;5.26;5.23;5.08;4.27;0.64
66961;SPS30;53897;51.126;5.868;2023-11-25T01:51:05;0.87;0.82;0.72;0.57;4.56;4.56;4.53;4.41;3.71;0.63
66961;SPS30;53897;51.126;5.868;2023-11-25T01:53:31;0.67;0.63;0.56;0.45;3.57;3.57;3.55;3.46;2.92;0.63
66961;SPS30;53897;51.126;5.868;2023-11-25T01:55:59;0.85;0.80;0.71;0.57;4.53;4.53;4.51;4.39;3.71;0.62
66961;SPS30;53897;51.126;5.868;2023-11-25T01:58:26;1.09;1.03;0.91;0.73;5.81;5.80;5.77;5.62;4.74;0.63
66961;SPS30;53897;51.126;5.868;2023-11-25T02:00:54;0.89;0.84;0.74;0.59;4.70;4.69;4.67;4.55;3.83;0.63
66961;SPS30;53897;51.126;5.868;2023-11-25T02:03:22;0.90;0.85;0.75;0.60;4.78;4.77;4.75;4.62;3.90;0.63
66961;SPS30;53897;51.126;5.868;2023-11-25T02:05:48;0.74;0.70;0.63;0.50;4.03;4.02;4.00;3.90;3.31;0.62
66961;SPS30;53897;51.126;5.868;2023-11-25T02:08:13;0.83;0.79;0.70;0.57;4.52;4.52;4.50;4.39;3.72;0.62
66961;SPS30;53897;51.126;5.868;2023-11-25T02:10:39;0.89;0.85;0.76;0.62;4.93;4.93;4.91;4.79;4.07;0.61
66961;SPS30;53897;51.126;5.868;2023-11-25T02:13:05;0.86;0.82;0.73;0.60;4.81;4.80;4.78;4.68;3.98;0.61
66961;SPS30;53897;51.126;5.868;2023-11-25T02:15:34;0.89;0.85;0.76;0.62;4.92;4.92;4.90;4.78;4.06;0.62
66961;SPS30;53897;51.126;5.868;2023-11-25T02:18:01;0.88;0.83;0.75;0.61;4.92;4.91;4.89;4.79;4.08;0.60
66961;SPS30;53897;51.126;5.868;2023-11-25T02:22:56;0.91;0.87;0.78;0.65;5.20;5.19;5.17;5.07;4.33;0.60
66961;SPS30;53897;51.126;5.868;2023-11-25T02:25:23;0.83;0.79;0.72;0.60;4.76;4.76;4.74;4.65;3.98;0.59
66961;SPS30;53897;51.126;5.868;2023-11-25T02:27:49;0.92;0.88;0.80;0.66;5.30;5.29;5.27;5.17;4.42;0.59
66961;SPS30;53897;51.126;5.868;2023-11-25T02:30:15;0.98;0.93;0.84;0.69;5.54;5.53;5.51;5.39;4.61;0.59
66961;SPS30;53897;51.126;5.868;2023-11-25T02:32:42;0.65;0.62;0.56;0.46;3.70;3.70;3.68;3.61;3.08;0.59
66961;SPS30;53897;51.126;5.868;2023-11-25T02:35:09;0.71;0.68;0.62;0.51;4.07;4.07;4.06;3.97;3.40;0.59
66961;SPS30;53897;51.126;5.868;2023-11-25T02:37:37;0.75;0.72;0.65;0.54;4.34;4.34;4.32;4.24;3.63;0.59
66961;SPS30;53897;51.126;5.868;2023-11-25T02:40:04;0.67;0.64;0.58;0.48;3.86;3.85;3.84;3.76;3.22;0.60
66961;SPS30;53897;51.126;5.868;2023-11-25T02:42:30;0.81;0.77;0.69;0.57;4.56;4.56;4.54;4.44;3.79;0.61
66961;SPS30;53897;51.126;5.868;2023-11-25T02:44:56;0.82;0.78;0.71;0.58;4.64;4.63;4.62;4.51;3.85;0.62
66961;SPS30;53897;51.126;5.868;2023-11-25T02:47:22;0.82;0.78;0.71;0.58;4.65;4.64;4.63;4.53;3.86;0.61
66961;SPS30;53897;51.126;5.868;2023-11-25T02:49:48;0.70;0.66;0.60;0.49;3.90;3.90;3.88;3.80;3.24;0.61
66961;SPS30;53897;51.126;5.868;2023-11-25T02:52:14;0.79;0.75;0.68;0.55;4.43;4.43;4.41;4.31;3.67;0.61
66961;SPS30;53897;51.126;5.868;2023-11-25T02:54:39;0.88;0.83;0.75;0.61;4.87;4.86;4.84;4.73;4.02;0.62
66961;SPS30;53897;51.126;5.868;2023-11-25T02:57:05;1.01;0.96;0.85;0.69;5.51;5.50;5.48;5.34;4.53;0.62
66961;SPS30;53897;51.126;5.868;2023-11-25T02:59:34;0.92;0.87;0.78;0.64;5.08;5.07;5.05;4.94;4.20;0.61
66961;SPS30;53897;51.126;5.868;2023-11-25T03:02:00;0.84;0.80;0.71;0.58;4.66;4.65;4.64;4.53;3.85;0.61
66961;SPS30;53897;51.126;5.868;2023-11-25T03:04:34;0.87;0.82;0.73;0.59;4.72;4.72;4.70;4.58;3.88;0.61
66961;SPS30;53897;51.126;5.868;2023-11-25T03:07:02;0.73;0.69;0.61;0.49;3.93;3.93;3.91;3.82;3.23;0.61
66961;SPS30;53897;51.126;5.868;2023-11-25T03:09:30;0.88;0.83;0.74;0.60;4.77;4.76;4.74;4.62;3.91;0.62
66961;SPS30;53897;51.126;5.868;2023-11-25T03:11:56;0.78;0.73;0.65;0.52;4.14;4.13;4.11;4.01;3.38;0.62
66961;SPS30;53897;51.126;5.868;2023-11-25T03:14:24;0.97;0.91;0.79;0.62;4.97;4.96;4.93;4.79;4.01;0.64
66961;SPS30;53897;51.126;5.868;2023-11-25T03:16:54;0.86;0.81;0.71;0.56;4.45;4.44;4.42;4.29;3.60;0.64
66961;SPS30;53897;51.126;5.868;2023-11-25T03:19:21;0.75;0.70;0.61;0.47;3.79;3.79;3.77;3.65;3.06;0.65
66961;SPS30;53897;51.126;5.868;2023-11-25T03:21:48;0.83;0.78;0.68;0.53;4.26;4.26;4.23;4.11;3.44;0.64
66961;SPS30;53897;51.126;5.868;2023-11-25T03:24:16;1.07;1.00;0.87;0.68;5.42;5.41;5.38;5.22;4.37;0.64
66961;SPS30;53897;51.126;5.868;2023-11-25T03:26:42;0.93;0.87;0.76;0.59;4.69;4.68;4.66;4.51;3.77;0.65
66961;SPS30;53897;51.126;5.868;2023-11-25T03:29:10;0.95;0.89;0.78;0.60;4.82;4.82;4.79;4.64;3.88;0.65
66961;SPS30;53897;51.126;5.868;2023-11-25T03:31:42;0.97;0.91;0.80;0.62;4.96;4.96;4.93;4.78;4.00;0.65
66961;SPS30;53897;51.126;5.868;2023-11-25T03:34:08;1.02;0.96;0.84;0.66;5.24;5.24;5.21;5.06;4.24;0.64
66961;SPS30;53897;51.126;5.868;2023-11-25T03:36:35;0.95;0.90;0.79;0.62;4.98;4.97;4.95;4.81;4.05;0.63
66961;SPS30;53897;51.126;5.868;2023-11-25T03:39:01;0.77;0.73;0.65;0.52;4.14;4.14;4.12;4.01;3.39;0.63
66961;SPS30;53897;51.126;5.868;2023-11-25T03:41:30;0.81;0.77;0.68;0.54;4.33;4.32;4.30;4.19;3.53;0.63
66961;SPS30;53897;51.126;5.868;2023-11-25T03:43:58;0.81;0.76;0.67;0.53;4.22;4.22;4.19;4.07;3.43;0.64
66961;SPS30;53897;51.126;5.868;2023-11-25T03:46:26;0.86;0.81;0.71;0.55;4.44;4.43;4.41;4.28;3.59;0.63
66961;SPS30;53897;51.126;5.868;2023-11-25T03:48:53;0.89;0.84;0.74;0.58;4.65;4.65;4.62;4.49;3.78;0.63
66961;SPS30;53897;51.126;5.868;2023-11-25T03:51:20;0.90;0.85;0.75;0.59;4.74;4.74;4.71;4.58;3.86;0.62
66961;SPS30;53897;51.126;5.868;2023-11-25T03:53:46;1.05;0.99;0.86;0.68;5.41;5.40;5.37;5.21;4.37;0.64
66961;SPS30;53897;51.126;5.868;2023-11-25T03:56:12;1.05;0.99;0.86;0.67;5.36;5.36;5.33;5.17;4.33;0.64
66961;SPS30;53897;51.126;5.868;2023-11-25T03:58:39;0.80;0.75;0.66;0.52;4.14;4.14;4.11;3.99;3.35;0.64
66961;SPS30;53897;51.126;5.868;2023-11-25T04:01:05;1.06;1.00;0.88;0.69;5.54;5.54;5.51;5.35;4.50;0.64
66961;SPS30;53897;51.126;5.868;2023-11-25T04:03:31;0.95;0.90;0.80;0.64;5.11;5.11;5.09;4.95;4.19;0.62
66961;SPS30;53897;51.126;5.868;2023-11-25T04:05:59;0.73;0.69;0.62;0.50;4.00;3.99;3.98;3.88;3.30;0.62
66961;SPS30;53897;51.126;5.868;2023-11-25T04:08:25;1.02;0.96;0.86;0.69;5.51;5.50;5.48;5.34;4.52;0.63
66961;SPS30;53897;51.126;5.868;2023-11-25T04:10:51;0.78;0.74;0.65;0.52;4.19;4.18;4.16;4.05;3.43;0.63
66961;SPS30;53897;51.126;5.868;2023-11-25T04:13:18;0.96;0.91;0.80;0.64;5.13;5.12;5.10;4.96;4.19;0.64
66961;SPS30;53897;51.126;5.868;2023-11-25T04:15:43;0.74;0.70;0.63;0.50;4.04;4.03;4.02;3.92;3.32;0.63
66961;SPS30;53897;51.126;5.868;2023-11-25T04:18:09;0.60;0.57;0.51;0.42;3.34;3.34;3.32;3.25;2.76;0.63
66961;SPS30;53897;51.126;5.868;2023-11-25T04:20:35;1.01;0.96;0.86;0.69;5.55;5.54;5.52;5.39;4.58;0.63
66961;SPS30;53897;51.126;5.868;2023-11-25T04:23:01;0.72;0.68;0.61;0.49;3.90;3.90;3.88;3.78;3.20;0.63
66961;SPS30;53897;51.126;5.868;2023-11-25T04:25:31;0.79;0.75;0.67;0.54;4.30;4.29;4.27;4.17;3.53;0.63
66961;SPS30;53897;51.126;5.868;2023-11-25T04:27:59;0.84;0.79;0.70;0.56;4.48;4.47;4.45;4.33;3.66;0.64
66961;SPS30;53897;51.126;5.868;2023-11-25T04:30:24;0.83;0.78;0.68;0.54;4.31;4.31;4.29;4.17;3.51;0.65
66961;SPS30;53897;51.126;5.868;2023-11-25T04:32:50;0.97;0.91;0.79;0.61;4.92;4.91;4.88;4.73;3.95;0.68
66961;SPS30;53897;51.126;5.868;2023-11-25T04:35:16;1.23;1.15;0.98;0.74;5.89;5.88;5.84;5.63;4.65;0.70
66961;SPS30;53897;51.126;5.868;2023-11-25T04:37:42;1.02;0.95;0.81;0.61;4.87;4.86;4.83;4.65;3.84;0.70
66961;SPS30;53897;51.126;5.868;2023-11-25T04:40:13;0.98;0.91;0.78;0.59;4.68;4.68;4.65;4.48;3.70;0.70
66961;SPS30;53897;51.126;5.868;2023-11-25T04:42:42;0.83;0.77;0.66;0.50;3.98;3.97;3.95;3.81;3.15;0.70
66961;SPS30;53897;51.126;5.868;2023-11-25T04:45:09;0.93;0.87;0.75;0.57;4.57;4.57;4.54;4.38;3.64;0.69
66961;SPS30;53897;51.126;5.868;2023-11-25T04:47:42;0.93;0.87;0.75;0.57;4.57;4.57;4.54;4.39;3.65;0.68
66961;SPS30;53897;51.126;5.868;2023-11-25T04:50:12;0.98;0.92;0.80;0.62;4.95;4.95;4.92;4.76;3.98;0.66
66961;SPS30;53897;51.126;5.868;2023-11-25T04:52:39;1.00;0.94;0.82;0.63;5.04;5.03;5.01;4.85;4.05;0.66
66961;SPS30;53897;51.126;5.868;2023-11-25T04:55:06;0.97;0.91;0.79;0.62;4.94;4.93;4.91;4.76;3.98;0.65
66961;SPS30;53897;51.126;5.868;2023-11-25T04:57:34;1.13;1.06;0.93;0.72;5.76;5.76;5.73;5.55;4.65;0.65
66961;SPS30;53897;51.126;5.868;2023-11-25T05:00:01;0.93;0.87;0.76;0.59;4.70;4.69;4.67;4.52;3.78;0.66
66961;SPS30;53897;51.126;5.868;2023-11-25T05:02:29;1.00;0.94;0.81;0.63;5.03;5.03;5.00;4.84;4.05;0.66
66961;SPS30;53897;51.126;5.868;2023-11-25T05:04:54;0.91;0.85;0.74;0.57;4.55;4.55;4.52;4.38;3.66;0.67
66961;SPS30;53897;51.126;5.868;2023-11-25T05:07:20;0.77;0.73;0.63;0.49;3.92;3.91;3.89;3.77;3.15;0.66
66961;SPS30;53897;51.126;5.868;2023-11-25T05:09:47;0.92;0.86;0.76;0.59;4.72;4.72;4.69;4.55;3.82;0.66
66961;SPS30;53897;51.126;5.868;2023-11-25T05:12:12;0.99;0.93;0.81;0.63;5.03;5.02;4.99;4.84;4.05;0.66
66961;SPS30;53897;51.126;5.868;2023-11-25T05:14:40;0.86;0.81;0.71;0.56;4.44;4.44;4.41;4.29;3.60;0.65
66961;SPS30;53897;51.126;5.868;2023-11-25T05:17:07;0.81;0.76;0.67;0.53;4.21;4.21;4.19;4.07;3.42;0.65
66961;SPS30;53897;51.126;5.868;2023-11-25T05:19:32;0.83;0.79;0.69;0.54;4.33;4.33;4.30;4.18;3.51;0.64
66961;SPS30;53897;51.126;5.868;2023-11-25T05:21:58;0.89;0.84;0.74;0.59;4.69;4.69;4.67;4.54;3.82;0.64
66961;SPS30;53897;51.126;5.868;2023-11-25T05:24:24;0.96;0.91;0.79;0.62;4.98;4.98;4.95;4.81;4.04;0.64
66961;SPS30;53897;51.126;5.868;2023-11-25T05:26:50;0.90;0.84;0.73;0.57;4.52;4.52;4.49;4.35;3.64;0.65
66961;SPS30;53897;51.126;5.868;2023-11-25T05:29:16;0.85;0.79;0.69;0.54;4.29;4.29;4.26;4.13;3.45;0.65
66961;SPS30;53897;51.126;5.868;2023-11-25T05:31:41;0.77;0.72;0.63;0.49;3.90;3.90;3.87;3.76;3.14;0.65
66961;SPS30;53897;51.126;5.868;2023-11-25T05:34:07;1.01;0.95;0.84;0.66;5.27;5.26;5.23;5.08;4.27;0.64
66961;SPS30;53897;51.126;5.868;2023-11-25T05:36:36;0.89;0.84;0.74;0.58;4.64;4.63;4.61;4.48;3.76;0.64
66961;SPS30;53897;51.126;5.868;2023-11-25T05:39:02;0.76;0.72;0.63;0.49;3.92;3.92;3.90;3.79;3.18;0.64
66961;SPS30;53897;51.126;5.868;2023-11-25T05:41:32;0.80;0.76;0.66;0.52;4.13;4.12;4.10;3.98;3.34;0.65
66961;SPS30;53897;51.126;5.868;2023-11-25T05:44:01;0.89;0.84;0.73;0.57;4.56;4.56;4.53;4.40;3.68;0.66
66961;SPS30;53897;51.126;5.868;2023-11-25T05:46:30;0.78;0.73;0.64;0.49;3.95;3.94;3.92;3.80;3.18;0.66
66961;SPS30;53897;51.126;5.868;2023-11-25T05:48:55;0.75;0.71;0.61;0.48;3.82;3.82;3.80;3.68;3.08;0.66
66961;SPS30;53897;51.126;5.868;2023-11-25T05:51:21;0.86;0.80;0.70;0.54;4.29;4.28;4.26;4.12;3.44;0.66
66961;SPS30;53897;51.126;5.868;2023-11-25T05:53:48;0.93;0.87;0.75;0.57;4.57;4.56;4.54;4.38;3.64;0.67
66961;SPS30;53897;51.126;5.868;2023-11-25T05:56:14;0.83;0.78;0.67;0.51;4.08;4.07;4.05;3.91;3.25;0.66
66961;SPS30;53897;51.126;5.868;2023-11-25T05:58:39;0.89;0.83;0.71;0.54;4.32;4.31;4.29;4.14;3.43;0.66
66961;SPS30;53897;51.126;5.868;2023-11-25T06:01:05;0.81;0.76;0.65;0.49;3.92;3.91;3.89;3.75;3.10;0.67
66961;SPS30;53897;51.126;5.868;2023-11-25T06:03:30;0.82;0.76;0.65;0.49;3.92;3.92;3.89;3.75;3.10;0.66
66961;SPS30;53897;51.126;5.868;2023-11-25T06:05:56;0.82;0.77;0.66;0.51;4.09;4.08;4.06;3.93;3.27;0.64
66961;SPS30;53897;51.126;5.868;2023-11-25T06:08:22;0.79;0.74;0.65;0.50;3.99;3.98;3.96;3.84;3.20;0.64
66961;SPS30;53897;51.126;5.868;2023-11-25T06:10:48;0.76;0.71;0.62;0.48;3.80;3.80;3.78;3.65;3.05;0.65
66961;SPS30;53897;51.126;5.868;2023-11-25T06:13:14;0.86;0.80;0.69;0.52;4.20;4.20;4.17;4.03;3.35;0.65
66961;SPS30;53897;51.126;5.868;2023-11-25T06:15:40;0.87;0.82;0.71;0.55;4.43;4.42;4.40;4.27;3.57;0.63
66961;SPS30;53897;51.126;5.868;2023-11-25T06:18:06;0.99;0.94;0.83;0.67;5.33;5.32;5.30;5.16;4.37;0.60
66961;SPS30;53897;51.126;5.868;2023-11-25T06:20:32;0.63;0.60;0.53;0.43;3.43;3.42;3.41;3.32;2.82;0.60
66961;SPS30;53897;51.126;5.868;2023-11-25T06:23:00;0.64;0.60;0.53;0.42;3.40;3.40;3.38;3.29;2.78;0.60
66961;SPS30;53897;51.126;5.868;2023-11-25T06:25:26;0.84;0.80;0.71;0.56;4.49;4.48;4.46;4.34;3.67;0.60
66961;SPS30;53897;51.126;5.868;2023-11-25T06:27:52;0.80;0.75;0.66;0.53;4.22;4.21;4.19;4.08;3.44;0.61
66961;SPS30;53897;51.126;5.868;2023-11-25T06:30:18;0.71;0.67;0.59;0.47;3.79;3.78;3.76;3.67;3.10;0.61
66961;SPS30;53897;51.126;5.868;2023-11-25T06:32:44;0.75;0.71;0.63;0.50;4.01;4.00;3.99;3.88;3.28;0.62
66961;SPS30;53897;51.126;5.868;2023-11-25T06:35:10;0.75;0.71;0.62;0.49;3.92;3.92;3.90;3.78;3.18;0.64
66961;SPS30;53897;51.126;5.868;2023-11-25T06:37:37;0.85;0.80;0.70;0.55;4.43;4.42;4.40;4.28;3.60;0.63
66961;SPS30;53897;51.126;5.868;2023-11-25T06:40:05;0.71;0.67;0.59;0.46;3.67;3.66;3.64;3.53;2.96;0.64
66961;SPS30;53897;51.126;5.868;2023-11-25T06:42:32;0.75;0.70;0.62;0.48;3.87;3.86;3.84;3.73;3.13;0.64
66961;SPS30;53897;51.126;5.868;2023-11-25T06:44:58;0.79;0.74;0.65;0.52;4.14;4.13;4.11;4.00;3.37;0.63
66961;SPS30;53897;51.126;5.868;2023-11-25T06:47:24;0.67;0.64;0.56;0.45;3.57;3.57;3.55;3.46;2.92;0.63
66961;SPS30;53897;51.126;5.868;2023-11-25T06:49:50;0.84;0.79;0.70;0.56;4.46;4.46;4.44;4.32;3.65;0.63
66961;SPS30;53897;51.126;5.868;2023-11-25T06:52:16;0.67;0.63;0.56;0.46;3.65;3.65;3.63;3.54;3.01;0.62
66961;SPS30;53897;51.126;5.868;2023-11-25T06:54:42;0.63;0.59;0.53;0.43;3.42;3.42;3.41;3.32;2.82;0.62
66961;SPS30;53897;51.126;5.868;2023-11-25T06:57:08;0.62;0.58;0.52;0.43;3.40;3.40;3.39;3.31;2.81;0.61
66961;SPS30;53897;51.126;5.868;2023-11-25T06:59:34;0.62;0.59;0.53;0.43;3.45;3.44;3.43;3.35;2.85;0.61
66961;SPS30;53897;51.126;5.868;2023-11-25T07:02:00;0.63;0.60;0.54;0.44;3.54;3.54;3.53;3.45;2.94;0.61
66961;SPS30;53897;51.126;5.868;2023-11-25T07:04:25;0.56;0.54;0.49;0.40;3.20;3.20;3.18;3.12;2.66;0.61
66961;SPS30;53897;51.126;5.868;2023-11-25T07:06:51;0.68;0.65;0.58;0.48;3.81;3.81;3.79;3.71;3.16;0.61
66961;SPS30;53897;51.126;5.868;2023-11-25T07:09:17;1.67;1.59;1.43;1.17;9.38;9.37;9.33;9.13;7.78;0.60
66961;SPS30;53897;51.126;5.868;2023-11-25T07:11:44;5.93;5.70;5.25;4.45;35.55;35.53;35.42;34.82;30.01;0.59
66961;SPS30;53897;51.126;5.868;2023-11-25T07:14:13;8.22;7.89;7.26;6.14;49.07;49.04;48.89;48.05;41.38;0.60
66961;SPS30;53897;51.126;5.868;2023-11-25T07:16:40;9.03;8.59;7.73;6.33;50.65;50.60;50.40;49.29;42.00;0.63
66961;SPS30;53897;51.126;5.868;2023-11-25T07:19:05;4.86;4.63;4.17;3.42;27.38;27.36;27.25;26.66;22.74;0.64
66961;SPS30;53897;51.126;5.868;2023-11-25T07:21:33;1.90;1.81;1.62;1.32;10.56;10.55;10.50;10.26;8.73;0.65
66961;SPS30;53897;51.126;5.868;2023-11-25T07:23:59;0.96;0.90;0.80;0.64;5.11;5.10;5.08;4.95;4.18;0.66
66961;SPS30;53897;51.126;5.868;2023-11-25T07:26:25;29.60;27.50;23.41;17.47;139.86;139.68;138.75;133.56;110.08;0.69
66961;SPS30;53897;51.126;5.868;2023-11-25T07:28:51;29.48;27.10;22.46;15.94;127.68;127.48;126.43;120.59;97.38;0.74
66961;SPS30;53897;51.126;5.868;2023-11-25T07:31:17;20.24;18.44;14.91;10.08;80.79;80.64;79.85;75.44;59.60;0.79
66961;SPS30;53897;51.126;5.868;2023-11-25T07:33:46;20.59;18.86;15.49;10.81;86.60;86.45;85.69;81.46;65.29;0.76
66961;SPS30;53897;51.126;5.868;2023-11-25T07:36:12;16.15;14.78;12.12;8.42;67.46;67.35;66.75;63.40;50.72;0.76
66961;SPS30;53897;51.126;5.868;2023-11-25T07:38:38;13.14;11.91;9.51;6.25;50.12;50.01;49.47;46.47;36.23;0.81
66961;SPS30;53897;51.126;5.868;2023-11-25T07:41:03;2.61;2.36;1.89;1.24;9.91;9.89;9.78;9.18;7.15;0.82
66961;SPS30;53897;51.126;5.868;2023-11-25T07:43:31;1.70;1.53;1.21;0.78;6.27;6.26;6.18;5.79;4.47;0.83
66961;SPS30;53897;51.126;5.868;2023-11-25T07:45:56;2.94;2.65;2.10;1.36;10.91;10.89;10.77;10.08;7.80;0.82
66961;SPS30;53897;51.126;5.868;2023-11-25T07:48:22;14.81;13.43;10.73;7.07;56.69;56.57;55.97;52.60;41.05;0.80
66961;SPS30;53897;51.126;5.868;2023-11-25T07:50:48;11.12;10.13;8.20;5.55;44.51;44.42;43.99;41.57;32.86;0.78
66961;SPS30;53897;51.126;5.868;2023-11-25T07:53:14;12.01;11.08;9.28;6.72;53.83;53.75;53.35;51.08;41.59;0.74
66961;SPS30;53897;51.126;5.868;2023-11-25T07:55:40;4.93;4.59;3.93;2.96;23.66;23.63;23.48;22.64;18.72;0.70
66961;SPS30;53897;51.126;5.868;2023-11-25T07:58:06;13.45;12.44;10.48;7.67;61.40;61.31;60.87;58.39;47.75;0.71
66961;SPS30;53897;51.126;5.868;2023-11-25T08:00:32;5.74;5.26;4.31;3.00;24.03;23.99;23.77;22.59;18.08;0.74
66961;SPS30;53897;51.126;5.868;2023-11-25T08:02:58;2.02;1.84;1.48;1.00;8.01;8.00;7.92;7.48;5.90;0.76
66961;SPS30;53897;51.126;5.868;2023-11-25T08:05:26;1.31;1.19;0.96;0.64;5.13;5.12;5.07;4.78;3.76;0.76
66961;SPS30;53897;51.126;5.868;2023-11-25T08:07:54;1.46;1.32;1.06;0.70;5.60;5.59;5.53;5.20;4.07;0.77
66961;SPS30;53897;51.126;5.868;2023-11-25T08:10:21;7.87;7.21;5.93;4.15;33.29;33.23;32.94;31.34;25.15;0.73
66961;SPS30;53897;51.126;5.868;2023-11-25T08:12:49;2.41;2.22;1.83;1.30;10.38;10.36;10.28;9.79;7.90;0.72
66961;SPS30;53897;51.126;5.868;2023-11-25T08:15:16;1.25;1.15;0.93;0.64;5.13;5.12;5.07;4.81;3.82;0.74
66961;SPS30;53897;51.126;5.868;2023-11-25T08:17:43;1.03;0.94;0.78;0.55;4.37;4.36;4.32;4.12;3.31;0.72
66961;SPS30;53897;51.126;5.868;2023-11-25T08:20:09;0.83;0.76;0.63;0.45;3.61;3.60;3.57;3.41;2.76;0.71
66961;SPS30;53897;51.126;5.868;2023-11-25T08:22:36;1.09;1.00;0.83;0.59;4.74;4.73;4.69;4.48;3.62;0.70
66961;SPS30;53897;51.126;5.868;2023-11-25T08:25:03;1.01;0.93;0.78;0.56;4.48;4.47;4.44;4.25;3.45;0.69
66961;SPS30;53897;51.126;5.868;2023-11-25T08:27:33;0.89;0.83;0.69;0.50;4.04;4.03;4.00;3.83;3.13;0.69
66961;SPS30;53897;51.126;5.868;2023-11-25T08:29:59;0.89;0.82;0.69;0.51;4.05;4.04;4.01;3.85;3.15;0.68
66961;SPS30;53897;51.126;5.868;2023-11-25T08:32:25;0.87;0.81;0.68;0.50;4.04;4.03;4.00;3.84;3.15;0.67
66961;SPS30;53897;51.126;5.868;2023-11-25T08:34:51;1.05;0.97;0.83;0.61;4.91;4.91;4.87;4.69;3.86;0.66
66961;SPS30;53897;51.126;5.868;2023-11-25T08:37:17;1.00;0.92;0.78;0.58;4.61;4.60;4.57;4.39;3.60;0.68
66961;SPS30;53897;51.126;5.868;2023-11-25T08:39:43;1.02;0.95;0.80;0.59;4.73;4.72;4.69;4.50;3.69;0.67
66961;SPS30;53897;51.126;5.868;2023-11-25T08:42:11;0.83;0.77;0.66;0.49;3.93;3.93;3.90;3.76;3.09;0.67
66961;SPS30;53897;51.126;5.868;2023-11-25T08:44:39;0.86;0.80;0.68;0.51;4.09;4.08;4.06;3.91;3.23;0.67
66961;SPS30;53897;51.126;5.868;2023-11-25T08:47:08;0.94;0.87;0.74;0.55;4.40;4.39;4.36;4.20;3.45;0.67
66961;SPS30;53897;51.126;5.868;2023-11-25T08:49:34;1.56;1.44;1.23;0.91;7.27;7.26;7.21;6.93;5.70;0.67
66961;SPS30;53897;51.126;5.868;2023-11-25T08:51:59;1.05;0.97;0.82;0.61;4.90;4.90;4.86;4.68;3.85;0.67
66961;SPS30;53897;51.126;5.868;2023-11-25T08:54:25;1.05;0.98;0.83;0.62;4.98;4.98;4.94;4.76;3.92;0.67
66961;SPS30;53897;51.126;5.868;2023-11-25T08:56:51;0.99;0.92;0.79;0.60;4.84;4.83;4.80;4.64;3.85;0.65
66961;SPS30;53897;51.126;5.868;2023-11-25T08:59:18;0.88;0.82;0.70;0.53;4.22;4.21;4.18;4.03;3.34;0.66
66961;SPS30;53897;51.126;5.868;2023-11-25T09:01:46;0.81;0.75;0.64;0.48;3.88;3.87;3.85;3.71;3.07;0.66
66961;SPS30;53897;51.126;5.868;2023-11-25T09:04:13;0.92;0.86;0.74;0.57;4.57;4.56;4.54;4.39;3.66;0.65
66961;SPS30;53897;51.126;5.868;2023-11-25T09:06:48;0.85;0.79;0.69;0.53;4.27;4.26;4.24;4.11;3.43;0.64
66961;SPS30;53897;51.126;5.868;2023-11-25T09:09:14;0.78;0.73;0.63;0.49;3.95;3.94;3.92;3.80;3.18;0.65
66961;SPS30;53897;51.126;5.868;2023-11-25T09:11:42;0.68;0.64;0.55;0.43;3.45;3.45;3.43;3.33;2.78;0.65
66961;SPS30;53897;51.126;5.868;2023-11-25T09:14:08;1.12;1.06;0.92;0.72;5.77;5.77;5.73;5.56;4.67;0.64
66961;SPS30;53897;51.126;5.868;2023-11-25T09:16:34;0.99;0.93;0.82;0.65;5.19;5.18;5.16;5.01;4.22;0.63
66961;SPS30;53897;51.126;5.868;2023-11-25T09:19:00;0.79;0.74;0.66;0.52;4.19;4.19;4.17;4.06;3.43;0.63
66961;SPS30;53897;51.126;5.868;2023-11-25T09:21:26;0.93;0.88;0.78;0.62;4.96;4.95;4.93;4.80;4.06;0.63
66961;SPS30;53897;51.126;5.868;2023-11-25T09:23:51;0.77;0.73;0.64;0.51;4.05;4.05;4.03;3.91;3.30;0.64
66961;SPS30;53897;51.126;5.868;2023-11-25T09:26:17;0.63;0.60;0.53;0.42;3.34;3.33;3.32;3.23;2.72;0.63
66961;SPS30;53897;51.126;5.868;2023-11-25T09:28:46;0.81;0.76;0.67;0.53;4.23;4.23;4.21;4.09;3.44;0.64
66961;SPS30;53897;51.126;5.868;2023-11-25T09:31:12;0.74;0.70;0.61;0.47;3.79;3.79;3.77;3.65;3.06;0.65
66961;SPS30;53897;51.126;5.868;2023-11-25T09:33:38;0.73;0.69;0.60;0.47;3.75;3.74;3.72;3.61;3.03;0.64
66961;SPS30;53897;51.126;5.868;2023-11-25T09:36:03;0.66;0.63;0.55;0.44;3.52;3.51;3.49;3.40;2.87;0.63